Time;durP1;ratioP1;P1;durP2;ratioP2;P2;SDS_P1;SDS_P2;PMS_P1;PMS_P2;Temp;Humidity;BMP_temperature;BMP_pressure;BME280_temperature;BME280_humidity;BME280_pressure;Samples;Min_cycle;Max_cycle;Signal;HPM_P1;HPM_P2
2022/08/06 00:01:07;;;;;;;;;3.67;3.67;;;;;;;;5077004;27;51959;-63
2022/08/06 00:03:32;;;;;;;;;3.67;3.67;;;;;;;;5075609;27;51129;-61
2022/08/06 00:05:57;;;;;;;;;5.00;4.67;;;;;;;;5075222;27;51190;-62
2022/08/06 00:08:22;;;;;;;;;5.00;3.67;;;;;;;;5075853;27;50916;-62
2022/08/06 00:10:48;;;;;;;;;4.33;4.33;;;;;;;;5074953;27;52215;-60
2022/08/06 00:13:13;;;;;;;;;4.33;4.00;;;;;;;;5075577;28;50964;-61
2022/08/06 00:15:38;;;;;;;;;3.00;3.00;;;;;;;;5076032;28;51066;-61
2022/08/06 00:18:03;;;;;;;;;5.00;4.33;;;;;;;;5076025;28;50964;-61
2022/08/06 00:20:29;;;;;;;;;5.00;5.00;;;;;;;;5075198;28;50986;-62
2022/08/06 00:22:54;;;;;;;;;6.00;4.67;;;;;;;;5075155;28;51200;-60
2022/08/06 00:25:19;;;;;;;;;6.00;6.00;;;;;;;;5074977;28;51477;-60
2022/08/06 00:27:44;;;;;;;;;2.33;1.67;;;;;;;;5075276;27;51089;-61
2022/08/06 00:30:10;;;;;;;;;7.00;6.67;;;;;;;;5074723;28;51128;-61
2022/08/06 00:32:35;;;;;;;;;6.67;6.67;;;;;;;;5075101;27;51053;-61
2022/08/06 00:35:00;;;;;;;;;9.33;9.00;;;;;;;;5073562;28;51448;-61
2022/08/06 00:37:28;;;;;;;;;7.00;6.33;;;;;;;;5075491;28;51225;-61
2022/08/06 00:39:53;;;;;;;;;10.33;9.33;;;;;;;;5074384;27;51163;-62
2022/08/06 00:42:19;;;;;;;;;10.67;10.00;;;;;;;;5075025;28;50909;-61
2022/08/06 00:44:44;;;;;;;;;10.67;10.67;;;;;;;;5074520;28;50972;-61
2022/08/06 00:47:09;;;;;;;;;8.00;8.00;;;;;;;;5075177;28;50850;-61
2022/08/06 00:49:34;;;;;;;;;10.00;10.00;;;;;;;;5073720;28;51822;-62
2022/08/06 00:52:00;;;;;;;;;8.00;7.00;;;;;;;;5074743;28;50885;-62
2022/08/06 00:54:25;;;;;;;;;8.33;8.00;;;;;;;;5074296;27;51064;-61
2022/08/06 00:56:50;;;;;;;;;6.67;6.00;;;;;;;;5074766;28;51081;-61
2022/08/06 00:59:15;;;;;;;;;7.00;6.00;;;;;;;;5075060;28;51306;-61
2022/08/06 01:01:40;;;;;;;;;7.67;7.67;;;;;;;;5074661;27;51007;-61
2022/08/06 01:04:06;;;;;;;;;5.00;5.00;;;;;;;;5074383;28;50851;-62
2022/08/06 01:06:31;;;;;;;;;6.67;6.33;;;;;;;;5073473;28;50986;-61
2022/08/06 01:08:56;;;;;;;;;6.00;5.00;;;;;;;;5073634;28;52736;-62
2022/08/06 01:11:21;;;;;;;;;5.67;5.00;;;;;;;;5074555;27;50993;-62
2022/08/06 01:13:47;;;;;;;;;6.33;6.00;;;;;;;;5073102;28;51214;-61
2022/08/06 01:16:17;;;;;;;;;3.67;3.67;;;;;;;;5074922;28;50931;-62
2022/08/06 01:19:06;;;;;;;;;3.67;3.33;;;;;;;;5073922;28;51780;-62
2022/08/06 01:21:31;;;;;;;;;4.00;3.33;;;;;;;;5074027;27;50937;-62
2022/08/06 01:23:59;;;;;;;;;3.00;3.00;;;;;;;;5074151;27;51163;-62
2022/08/06 01:26:36;;;;;;;;;3.33;3.33;;;;;;;;5074702;28;51385;-62
2022/08/06 01:29:07;;;;;;;;;3.00;3.00;;;;;;;;5073843;28;51052;-61
2022/08/06 01:31:36;;;;;;;;;2.00;2.00;;;;;;;;5074374;28;51056;-61
2022/08/06 01:34:05;;;;;;;;;3.00;2.67;;;;;;;;5073044;28;51055;-61
2022/08/06 01:36:36;;;;;;;;;2.00;2.00;;;;;;;;5074166;28;50984;-61
2022/08/06 01:39:01;;;;;;;;;2.00;2.00;;;;;;;;5074147;28;52324;-62
2022/08/06 01:41:39;;;;;;;;;3.00;2.00;;;;;;;;5073630;28;51101;-61
2022/08/06 01:44:13;;;;;;;;;3.67;3.00;;;;;;;;5075061;28;51087;-62
2022/08/06 01:46:40;;;;;;;;;2.33;2.33;;;;;;;;5074858;27;50857;-61
2022/08/06 01:49:06;;;;;;;;;2.00;2.00;;;;;;;;5073961;27;50908;-60
2022/08/06 01:51:33;;;;;;;;;6.33;5.33;;;;;;;;5073925;28;50891;-63
2022/08/06 01:53:59;;;;;;;;;3.00;2.00;;;;;;;;5073563;28;50916;-62
2022/08/06 01:56:26;;;;;;;;;1.33;1.33;;;;;;;;5073979;27;51103;-60
2022/08/06 01:58:52;;;;;;;;;3.00;3.00;;;;;;;;5073579;27;52025;-61
2022/08/06 02:01:18;;;;;;;;;4.00;4.00;;;;;;;;5073602;27;50894;-61
2022/08/06 02:03:45;;;;;;;;;4.00;4.00;;;;;;;;5072292;27;50910;-61
2022/08/06 02:06:22;;;;;;;;;2.00;2.00;;;;;;;;5073726;28;51064;-61
2022/08/06 02:08:50;;;;;;;;;2.00;2.00;;;;;;;;5072895;28;51212;-60
2022/08/06 02:11:16;;;;;;;;;2.00;2.00;;;;;;;;5073268;28;51006;-60
2022/08/06 02:13:42;;;;;;;;;2.00;2.00;;;;;;;;5073474;28;50963;-61
2022/08/06 02:16:09;;;;;;;;;3.33;3.33;;;;;;;;5073553;27;51365;-61
2022/08/06 02:18:37;;;;;;;;;2.00;2.00;;;;;;;;5073030;27;51307;-61
2022/08/06 02:21:05;;;;;;;;;2.33;2.33;;;;;;;;5071797;28;51209;-60
2022/08/06 02:23:31;;;;;;;;;2.33;2.00;;;;;;;;5073336;28;51107;-61
2022/08/06 02:25:57;;;;;;;;;3.00;3.00;;;;;;;;5073510;28;50901;-60
2022/08/06 02:28:23;;;;;;;;;3.67;3.00;;;;;;;;5072573;28;52286;-60
2022/08/06 02:30:50;;;;;;;;;2.00;2.00;;;;;;;;5073918;27;50918;-61
2022/08/06 02:33:15;;;;;;;;;2.00;1.67;;;;;;;;5073278;28;50906;-61
2022/08/06 02:36:13;;;;;;;;;2.00;2.00;;;;;;;;5073436;28;51038;-59
2022/08/06 02:38:45;;;;;;;;;4.00;4.00;;;;;;;;5055439;28;52491;-61
2022/08/06 02:41:15;;;;;;;;;3.67;3.33;;;;;;;;5072814;28;50973;-60
2022/08/06 02:43:42;;;;;;;;;5.00;5.00;;;;;;;;5072806;28;51043;-60
2022/08/06 02:46:13;;;;;;;;;4.00;4.00;;;;;;;;5072945;28;50892;-61
2022/08/06 02:48:49;;;;;;;;;4.67;4.00;;;;;;;;5072593;28;51166;-62
2022/08/06 02:51:17;;;;;;;;;5.00;4.00;;;;;;;;5072325;28;50968;-62
2022/08/06 02:53:45;;;;;;;;;4.00;3.67;;;;;;;;5071287;28;50919;-60
2022/08/06 02:56:11;;;;;;;;;5.00;5.00;;;;;;;;5072788;28;51197;-60
2022/08/06 02:58:47;;;;;;;;;6.00;6.00;;;;;;;;5072407;28;51025;-61
2022/08/06 03:01:15;;;;;;;;;5.00;5.00;;;;;;;;5072526;28;51060;-60
2022/08/06 03:03:42;;;;;;;;;5.75;5.75;;;;;;;;5073004;28;51197;-62
2022/08/06 03:06:08;;;;;;;;;5.50;5.25;;;;;;;;5072557;28;51255;-61
2022/08/06 03:08:35;;;;;;;;;6.75;6.25;;;;;;;;5071964;28;51122;-61
2022/08/06 03:11:01;;;;;;;;;9.00;8.00;;;;;;;;5070908;28;50874;-60
2022/08/06 03:13:27;;;;;;;;;8.00;8.00;;;;;;;;5072173;28;50882;-61
2022/08/06 03:15:53;;;;;;;;;9.75;9.75;;;;;;;;5072898;28;50984;-61
2022/08/06 03:18:20;;;;;;;;;8.25;8.25;;;;;;;;5072955;28;51156;-61
2022/08/06 03:20:45;;;;;;;;;13.00;12.00;;;;;;;;5072347;28;50982;-61
2022/08/06 03:23:12;;;;;;;;;12.75;10.50;;;;;;;;5072804;28;50906;-62
2022/08/06 03:25:38;;;;;;;;;8.50;8.50;;;;;;;;5074554;27;50885;-61
2022/08/06 03:28:04;;;;;;;;;11.00;10.75;;;;;;;;5073711;28;51294;-61
2022/08/06 03:30:29;;;;;;;;;9.75;9.75;;;;;;;;5074007;28;50883;-60
2022/08/06 03:32:55;;;;;;;;;11.00;10.25;;;;;;;;5073924;28;50819;-61
2022/08/06 03:35:20;;;;;;;;;8.00;8.00;;;;;;;;5073712;27;51315;-62
2022/08/06 03:37:48;;;;;;;;;9.75;9.75;;;;;;;;5073508;28;51029;-62
2022/08/06 03:40:14;;;;;;;;;15.75;13.00;;;;;;;;5073744;27;51129;-62
2022/08/06 03:42:40;;;;;;;;;9.75;8.75;;;;;;;;5073943;28;50875;-62
2022/08/06 03:45:05;;;;;;;;;9.00;9.00;;;;;;;;5072725;28;51133;-62
2022/08/06 03:47:33;;;;;;;;;11.00;10.00;;;;;;;;5070767;28;51721;-61
2022/08/06 03:50:08;;;;;;;;;8.75;7.75;;;;;;;;5072198;28;50870;-62
2022/08/06 03:52:37;;;;;;;;;4.75;4.75;;;;;;;;5070947;28;51186;-62
2022/08/06 03:55:04;;;;;;;;;4.00;4.00;;;;;;;;5071909;28;51246;-62
2022/08/06 03:57:35;;;;;;;;;4.25;4.25;;;;;;;;5072334;28;52011;-62
2022/08/06 04:00:01;;;;;;;;;3.67;3.00;;;;;;;;5072849;28;50994;-62
2022/08/06 04:02:28;;;;;;;;;4.75;4.00;;;;;;;;5072164;28;51067;-62
2022/08/06 04:04:54;;;;;;;;;4.00;3.00;;;;;;;;5072399;28;51324;-62
2022/08/06 04:07:19;;;;;;;;;3.00;3.00;;;;;;;;5072213;28;51560;-62
2022/08/06 04:09:45;;;;;;;;;4.25;4.00;;;;;;;;5072018;28;52257;-62
2022/08/06 04:12:11;;;;;;;;;1.00;1.00;;;;;;;;5071901;28;51032;-62
2022/08/06 04:14:36;;;;;;;;;3.00;2.33;;;;;;;;5072082;28;51212;-62
2022/08/06 04:17:03;;;;;;;;;3.50;3.00;;;;;;;;5071570;28;52087;-62
2022/08/06 04:19:29;;;;;;;;;3.00;3.00;;;;;;;;5071945;28;51050;-62
2022/08/06 04:21:54;;;;;;;;;3.00;3.00;;;;;;;;5071663;28;51004;-60
2022/08/06 04:24:20;;;;;;;;;2.00;2.00;;;;;;;;5071807;28;51127;-62
2022/08/06 04:26:47;;;;;;;;;3.00;2.67;;;;;;;;5074758;28;51984;-61
2022/08/06 04:29:15;;;;;;;;;2.00;1.67;;;;;;;;5075671;28;50923;-62
2022/08/06 04:31:42;;;;;;;;;2.00;2.00;;;;;;;;5075252;28;51150;-62
2022/08/06 04:34:08;;;;;;;;;2.33;2.33;;;;;;;;5075361;28;50923;-62
2022/08/06 04:36:34;;;;;;;;;2.00;1.50;;;;;;;;5074566;28;51970;-62
2022/08/06 04:38:59;;;;;;;;;2.00;2.00;;;;;;;;5075005;27;51309;-61
2022/08/06 04:41:25;;;;;;;;;3.00;3.00;;;;;;;;5075515;28;51194;-62
2022/08/06 04:43:51;;;;;;;;;2.00;2.00;;;;;;;;5075574;28;51130;-64
2022/08/06 04:46:17;;;;;;;;;2.00;2.00;;;;;;;;5074671;28;51957;-61
2022/08/06 04:48:42;;;;;;;;;2.00;2.00;;;;;;;;5075089;28;50965;-61
2022/08/06 04:51:07;;;;;;;;;2.00;2.00;;;;;;;;5075137;28;51152;-62
2022/08/06 04:53:37;;;;;;;;;2.00;2.00;;;;;;;;5074703;28;51296;-61
2022/08/06 04:56:03;;;;;;;;;1.00;1.00;;;;;;;;5074807;28;52160;-61
2022/08/06 04:58:28;;;;;;;;;2.00;2.00;;;;;;;;5073781;28;50997;-60
2022/08/06 05:00:53;;;;;;;;;3.00;1.67;;;;;;;;5074729;28;50834;-61
2022/08/06 05:03:18;;;;;;;;;3.00;2.00;;;;;;;;5074964;28;50878;-62
2022/08/06 05:05:50;;;;;;;;;2.00;2.00;;;;;;;;5074292;27;51024;-64
2022/08/06 05:08:16;;;;;;;;;2.00;2.00;;;;;;;;5074298;28;50968;-61
2022/08/06 05:10:47;;;;;;;;;2.67;2.67;;;;;;;;5074549;28;50971;-61
2022/08/06 05:13:14;;;;;;;;;1.75;1.75;;;;;;;;5074765;28;51256;-61
2022/08/06 05:15:41;;;;;;;;;3.25;3.00;;;;;;;;5073951;27;51131;-62
2022/08/06 05:18:19;;;;;;;;;3.00;2.33;;;;;;;;5074610;27;51001;-61
2022/08/06 05:20:48;;;;;;;;;2.00;2.00;;;;;;;;5073028;28;51100;-62
2022/08/06 05:23:17;;;;;;;;;2.00;2.00;;;;;;;;5074326;28;50976;-61
2022/08/06 05:25:42;;;;;;;;;2.75;2.75;;;;;;;;5073748;28;52266;-62
2022/08/06 05:28:08;;;;;;;;;3.00;3.00;;;;;;;;5072975;28;51021;-62
2022/08/06 05:30:34;;;;;;;;;2.67;2.67;;;;;;;;5074153;27;51217;-62
2022/08/06 05:32:59;;;;;;;;;2.33;2.33;;;;;;;;5074486;28;51311;-62
2022/08/06 05:35:24;;;;;;;;;3.00;3.00;;;;;;;;5073817;28;52037;-62
2022/08/06 05:37:50;;;;;;;;;2.00;2.00;;;;;;;;5073541;28;51003;-62
2022/08/06 05:40:15;;;;;;;;;3.00;3.00;;;;;;;;5074197;27;51226;-61
2022/08/06 05:42:40;;;;;;;;;2.00;1.67;;;;;;;;5074298;28;51236;-62
2022/08/06 05:45:08;;;;;;;;;3.33;2.67;;;;;;;;5073531;28;51027;-60
2022/08/06 05:47:35;;;;;;;;;2.00;2.00;;;;;;;;5074324;28;51043;-62
2022/08/06 05:50:11;;;;;;;;;3.00;2.67;;;;;;;;5073826;28;51107;-61
2022/08/06 05:52:36;;;;;;;;;2.00;2.00;;;;;;;;5073809;28;51246;-62
2022/08/06 05:55:04;;;;;;;;;1.50;1.50;;;;;;;;5073349;27;51116;-61
2022/08/06 05:57:29;;;;;;;;;3.00;2.00;;;;;;;;5073579;28;50941;-62
2022/08/06 06:00:09;;;;;;;;;1.00;1.00;;;;;;;;5073570;28;50909;-62
2022/08/06 06:02:36;;;;;;;;;2.00;2.00;;;;;;;;5069235;28;51040;-63
2022/08/06 06:05:01;;;;;;;;;1.00;1.00;;;;;;;;5073363;27;50905;-63
2022/08/06 06:07:27;;;;;;;;;1.67;1.67;;;;;;;;5073381;28;51215;-62
2022/08/06 06:09:53;;;;;;;;;1.67;1.00;;;;;;;;5073433;28;50981;-63
2022/08/06 06:12:19;;;;;;;;;1.00;1.00;;;;;;;;5074072;28;50929;-62
2022/08/06 06:14:47;;;;;;;;;3.00;2.00;;;;;;;;5073323;28;50870;-62
2022/08/06 06:17:39;;;;;;;;;2.00;2.00;;;;;;;;5073230;28;50954;-62
2022/08/06 06:20:40;;;;;;;;;1.00;1.00;;;;;;;;5073378;27;51005;-62
2022/08/06 06:23:08;;;;;;;;;1.00;1.00;;;;;;;;5050581;28;51208;-62
2022/08/06 06:25:42;;;;;;;;;1.00;1.00;;;;;;;;5055780;28;51741;-62
2022/08/06 06:28:28;;;;;;;;;1.33;1.33;;;;;;;;5073621;28;51090;-63
2022/08/06 06:31:00;;;;;;;;;1.67;1.67;;;;;;;;5073246;28;50930;-63
2022/08/06 06:33:44;;;;;;;;;2.00;2.00;;;;;;;;5073483;28;51076;-63
2022/08/06 06:36:16;;;;;;;;;1.00;1.00;;;;;;;;5072660;28;51999;-63
2022/08/06 06:39:17;;;;;;;;;2.67;2.67;;;;;;;;5074329;28;51103;-62
2022/08/06 06:41:49;;;;;;;;;7.00;6.33;;;;;;;;5051654;28;50992;-62
2022/08/06 06:44:44;;;;;;;;;4.67;4.00;;;;;;;;5059616;28;51320;-62
2022/08/06 06:47:15;;;;;;;;;3.67;3.00;;;;;;;;5063424;28;54099;-61
2022/08/06 06:49:44;;;;;;;;;2.00;2.00;;;;;;;;5073673;27;50827;-62
2022/08/06 06:52:13;;;;;;;;;3.00;2.00;;;;;;;;5073777;28;51158;-62
2022/08/06 06:54:41;;;;;;;;;0.00;0.00;;;;;;;;5073257;27;50961;-62
2022/08/06 06:57:09;;;;;;;;;0.00;0.00;;;;;;;;5072696;28;51083;-61
2022/08/06 06:59:35;;;;;;;;;0.33;0.33;;;;;;;;5072903;28;51049;-62
2022/08/06 07:02:02;;;;;;;;;1.00;1.00;;;;;;;;5072813;27;51005;-62
2022/08/06 07:04:28;;;;;;;;;0.00;0.00;;;;;;;;5072770;28;51215;-61
2022/08/06 07:06:54;;;;;;;;;0.00;0.00;;;;;;;;5072732;28;52178;-61
2022/08/06 07:09:22;;;;;;;;;0.00;0.00;;;;;;;;5073038;27;50877;-62
2022/08/06 07:11:50;;;;;;;;;0.00;0.00;;;;;;;;5072760;28;51172;-61
2022/08/06 07:14:16;;;;;;;;;0.00;0.00;;;;;;;;5072779;28;51036;-61
2022/08/06 07:16:44;;;;;;;;;0.33;0.00;;;;;;;;5072486;28;51091;-62
2022/08/06 07:19:09;;;;;;;;;0.00;0.00;;;;;;;;5072537;27;51672;-62
2022/08/06 07:21:35;;;;;;;;;1.00;1.00;;;;;;;;5072795;27;50877;-62
2022/08/06 07:24:01;;;;;;;;;0.00;0.00;;;;;;;;5072402;27;50833;-62
2022/08/06 07:26:27;;;;;;;;;0.00;0.00;;;;;;;;5072647;27;52733;-62
2022/08/06 07:28:53;;;;;;;;;0.00;0.00;;;;;;;;5072894;27;50985;-62
2022/08/06 07:31:23;;;;;;;;;0.00;0.00;;;;;;;;5072562;28;50914;-62
2022/08/06 07:33:48;;;;;;;;;0.00;0.00;;;;;;;;5072612;27;51254;-63
2022/08/06 07:36:18;;;;;;;;;0.00;0.00;;;;;;;;5072176;27;51083;-62
2022/08/06 07:38:44;;;;;;;;;0.00;0.00;;;;;;;;5071682;27;51067;-61
2022/08/06 07:41:11;;;;;;;;;0.00;0.00;;;;;;;;5072177;27;51100;-61
2022/08/06 07:43:51;;;;;;;;;0.00;0.00;;;;;;;;5059990;27;51284;-61
2022/08/06 07:46:19;;;;;;;;;0.00;0.00;;;;;;;;5071832;27;50841;-61
2022/08/06 07:48:50;;;;;;;;;0.00;0.00;;;;;;;;5072147;28;51204;-62
2022/08/06 07:51:15;;;;;;;;;0.00;0.00;;;;;;;;5072123;27;50911;-62
2022/08/06 07:53:41;;;;;;;;;0.00;0.00;;;;;;;;5071749;27;51215;-62
2022/08/06 07:56:08;;;;;;;;;0.00;0.00;;;;;;;;5071924;28;52003;-62
2022/08/06 07:58:34;;;;;;;;;0.00;0.00;;;;;;;;5070822;28;50973;-62
2022/08/06 08:01:01;;;;;;;;;0.00;0.00;;;;;;;;5075513;27;51084;-62
2022/08/06 08:06:24;;;;;;;;;0.00;0.00;;;;;;;;5075319;28;50909;-61
2022/08/06 08:08:54;;;;;;;;;0.00;0.00;;;;;;;;5075150;27;51088;-62
2022/08/06 08:11:20;;;;;;;;;0.00;0.00;;;;;;;;5075822;28;51059;-62
2022/08/06 08:13:45;;;;;;;;;0.00;0.00;;;;;;;;5074047;28;51168;-62
2022/08/06 08:16:13;;;;;;;;;0.00;0.00;;;;;;;;5074959;28;52018;-61
2022/08/06 08:18:38;;;;;;;;;0.00;0.00;;;;;;;;5075098;28;50949;-61
2022/08/06 08:21:04;;;;;;;;;0.00;0.00;;;;;;;;5075213;28;50836;-62
2022/08/06 08:23:32;;;;;;;;;0.00;0.00;;;;;;;;5075090;28;51269;-62
2022/08/06 08:25:58;;;;;;;;;0.00;0.00;;;;;;;;5075103;27;52111;-62
2022/08/06 08:28:24;;;;;;;;;0.00;0.00;;;;;;;;5073326;28;51213;-62
2022/08/06 08:30:49;;;;;;;;;0.67;0.67;;;;;;;;5073660;28;51205;-62
2022/08/06 08:33:15;;;;;;;;;0.00;0.00;;;;;;;;5075218;28;51140;-61
2022/08/06 08:35:40;;;;;;;;;0.00;0.00;;;;;;;;5073310;28;53379;-61
2022/08/06 08:38:06;;;;;;;;;0.00;0.00;;;;;;;;5074552;28;50972;-62
2022/08/06 08:40:32;;;;;;;;;0.00;0.00;;;;;;;;5074664;28;51248;-62
2022/08/06 08:42:59;;;;;;;;;0.00;0.00;;;;;;;;5073928;28;51150;-61
2022/08/06 08:45:25;;;;;;;;;0.00;0.00;;;;;;;;5075067;28;51146;-62
2022/08/06 08:47:51;;;;;;;;;0.00;0.00;;;;;;;;5075116;28;50869;-61
2022/08/06 08:50:22;;;;;;;;;0.00;0.00;;;;;;;;5074938;28;50942;-61
2022/08/06 08:52:49;;;;;;;;;1.00;1.00;;;;;;;;5074092;28;51032;-61
2022/08/06 08:55:15;;;;;;;;;0.00;0.00;;;;;;;;5074708;28;51928;-61
2022/08/06 08:57:41;;;;;;;;;0.00;0.00;;;;;;;;5074366;28;51000;-61
2022/08/06 09:00:06;;;;;;;;;0.00;0.00;;;;;;;;5074404;28;51041;-61
2022/08/06 09:02:32;;;;;;;;;0.00;0.00;;;;;;;;5069205;28;50854;-63
2022/08/06 09:04:58;;;;;;;;;0.00;0.00;;;;;;;;5074228;28;51120;-60
2022/08/06 09:07:23;;;;;;;;;0.00;0.00;;;;;;;;5074400;28;51060;-61
2022/08/06 09:09:48;;;;;;;;;0.00;0.00;;;;;;;;5074123;28;50974;-62
2022/08/06 09:12:14;;;;;;;;;0.00;0.00;;;;;;;;5073800;28;51096;-61
2022/08/06 09:14:43;;;;;;;;;0.00;0.00;;;;;;;;5074170;28;51304;-62
2022/08/06 09:17:09;;;;;;;;;0.00;0.00;;;;;;;;5072754;28;51067;-62
2022/08/06 09:19:34;;;;;;;;;0.00;0.00;;;;;;;;5074438;28;50909;-62
2022/08/06 09:22:00;;;;;;;;;0.00;0.00;;;;;;;;5074818;28;51336;-63
2022/08/06 09:24:25;;;;;;;;;0.00;0.00;;;;;;;;5074265;28;50954;-61
2022/08/06 09:27:07;;;;;;;;;0.00;0.00;;;;;;;;5073735;28;50876;-61
2022/08/06 09:29:33;;;;;;;;;0.00;0.00;;;;;;;;5074004;28;51143;-61
2022/08/06 09:31:59;;;;;;;;;0.00;0.00;;;;;;;;5074180;28;51090;-61
2022/08/06 09:34:31;;;;;;;;;0.00;0.00;;;;;;;;5073609;28;52011;-61
2022/08/06 09:36:56;;;;;;;;;0.00;0.00;;;;;;;;5073803;28;51221;-62
2022/08/06 09:39:30;;;;;;;;;0.00;0.00;;;;;;;;5073339;28;50983;-63
2022/08/06 09:41:57;;;;;;;;;0.00;0.00;;;;;;;;5073860;28;50901;-62
2022/08/06 09:44:22;;;;;;;;;0.00;0.00;;;;;;;;5073430;28;52827;-62
2022/08/06 09:46:49;;;;;;;;;0.00;0.00;;;;;;;;5073550;28;50949;-61
2022/08/06 09:49:16;;;;;;;;;0.00;0.00;;;;;;;;5073844;28;50786;-62
2022/08/06 09:51:41;;;;;;;;;0.67;0.00;;;;;;;;5072383;28;51614;-62
2022/08/06 09:54:15;;;;;;;;;0.00;0.00;;;;;;;;5073718;28;52287;-63
2022/08/06 09:56:44;;;;;;;;;0.00;0.00;;;;;;;;5074304;28;51087;-62
2022/08/06 09:59:10;;;;;;;;;0.00;0.00;;;;;;;;5072684;28;51059;-61
2022/08/06 10:01:38;;;;;;;;;0.00;0.00;;;;;;;;5074406;28;50967;-63
2022/08/06 10:04:03;;;;;;;;;0.00;0.00;;;;;;;;5073281;27;50965;-61
2022/08/06 10:06:29;;;;;;;;;0.00;0.00;;;;;;;;5074015;27;50930;-63
2022/08/06 10:09:10;;;;;;;;;0.00;0.00;;;;;;;;5073010;28;51041;-61
2022/08/06 10:11:40;;;;;;;;;0.00;0.00;;;;;;;;5074890;28;51391;-61
2022/08/06 10:14:05;;;;;;;;;0.00;0.00;;;;;;;;5074293;27;52067;-63
2022/08/06 10:16:31;;;;;;;;;0.33;0.33;;;;;;;;5074331;28;50892;-62
2022/08/06 10:18:59;;;;;;;;;1.00;1.00;;;;;;;;5073353;28;51009;-61
2022/08/06 10:21:26;;;;;;;;;0.00;0.00;;;;;;;;5072604;28;51384;-62
2022/08/06 10:23:52;;;;;;;;;0.00;0.00;;;;;;;;5071527;28;51153;-62
2022/08/06 10:26:20;;;;;;;;;0.00;0.00;;;;;;;;5073259;28;50981;-63
2022/08/06 10:28:47;;;;;;;;;0.00;0.00;;;;;;;;5072005;28;50909;-62
2022/08/06 10:31:13;;;;;;;;;0.67;0.67;;;;;;;;5074033;28;51385;-62
2022/08/06 10:33:44;;;;;;;;;0.00;0.00;;;;;;;;5074217;27;51132;-61
2022/08/06 10:36:12;;;;;;;;;0.33;0.33;;;;;;;;5072887;28;51032;-62
2022/08/06 10:38:40;;;;;;;;;0.33;0.33;;;;;;;;5064347;28;51048;-62
2022/08/06 10:41:10;;;;;;;;;1.00;1.00;;;;;;;;5073347;27;51111;-62
2022/08/06 10:43:37;;;;;;;;;1.00;1.00;;;;;;;;5072327;27;50875;-62
2022/08/06 10:46:15;;;;;;;;;1.67;1.67;;;;;;;;5072766;27;50952;-62
2022/08/06 10:48:42;;;;;;;;;0.67;0.67;;;;;;;;5073042;27;50900;-62
2022/08/06 10:51:08;;;;;;;;;1.00;1.00;;;;;;;;5072753;27;51093;-62
2022/08/06 10:53:35;;;;;;;;;2.00;2.00;;;;;;;;5049535;28;53363;-62
2022/08/06 10:56:02;;;;;;;;;1.00;1.00;;;;;;;;5065265;28;50954;-61
2022/08/06 10:58:29;;;;;;;;;1.00;1.00;;;;;;;;5072609;27;51135;-61
2022/08/06 11:00:55;;;;;;;;;2.33;2.00;;;;;;;;5072887;27;51280;-61
2022/08/06 11:03:40;;;;;;;;;2.00;2.00;;;;;;;;5073301;28;52068;-62
2022/08/06 11:06:16;;;;;;;;;1.00;1.00;;;;;;;;5072052;27;51037;-62
2022/08/06 11:08:56;;;;;;;;;1.33;1.00;;;;;;;;5072494;28;51058;-62
2022/08/06 11:11:25;;;;;;;;;1.33;1.33;;;;;;;;5072626;27;51336;-63
2022/08/06 11:14:05;;;;;;;;;1.67;1.67;;;;;;;;5071471;27;51107;-61
2022/08/06 11:16:31;;;;;;;;;1.00;1.00;;;;;;;;5072068;28;50922;-62
2022/08/06 11:18:57;;;;;;;;;1.67;1.67;;;;;;;;5071853;28;50939;-61
2022/08/06 11:21:42;;;;;;;;;1.00;1.00;;;;;;;;5072512;28;51049;-62
2022/08/06 11:24:08;;;;;;;;;2.00;2.00;;;;;;;;5069848;28;54182;-62
2022/08/06 11:26:35;;;;;;;;;1.00;1.00;;;;;;;;5072186;27;50973;-62
2022/08/06 11:29:01;;;;;;;;;2.33;2.00;;;;;;;;5072026;28;51038;-61
2022/08/06 11:31:33;;;;;;;;;1.67;1.67;;;;;;;;5070123;28;51027;-61
2022/08/06 11:33:59;;;;;;;;;1.67;1.00;;;;;;;;5070516;28;54059;-62
2022/08/06 11:36:25;;;;;;;;;1.67;1.67;;;;;;;;5075499;28;51111;-62
2022/08/06 11:38:53;;;;;;;;;1.00;1.00;;;;;;;;5073543;28;50968;-62
2022/08/06 11:41:21;;;;;;;;;1.00;1.00;;;;;;;;5076301;28;50811;-62
2022/08/06 11:43:52;;;;;;;;;2.00;2.00;;;;;;;;5076173;27;51309;-63
2022/08/06 11:46:23;;;;;;;;;4.67;4.00;;;;;;;;5075576;27;51199;-63
2022/08/06 11:48:58;;;;;;;;;1.67;1.33;;;;;;;;5075383;27;51036;-62
2022/08/06 11:51:43;;;;;;;;;1.00;1.00;;;;;;;;5075800;27;51359;-62
2022/08/06 11:54:08;;;;;;;;;1.67;1.67;;;;;;;;5074948;27;51059;-61
2022/08/06 11:56:33;;;;;;;;;2.67;2.00;;;;;;;;5074812;27;51071;-62
2022/08/06 11:59:14;;;;;;;;;3.00;3.00;;;;;;;;5075031;28;50892;-61
2022/08/06 12:01:46;;;;;;;;;2.67;2.67;;;;;;;;5075167;27;50866;-62
2022/08/06 12:04:30;;;;;;;;;3.00;3.00;;;;;;;;5072943;28;53343;-62
2022/08/06 12:07:14;;;;;;;;;1.33;1.00;;;;;;;;5074652;27;50986;-62
2022/08/06 12:09:39;;;;;;;;;1.00;1.00;;;;;;;;5074655;27;51027;-62
2022/08/06 12:12:23;;;;;;;;;1.33;1.33;;;;;;;;5075279;28;51425;-61
2022/08/06 12:14:49;;;;;;;;;3.00;3.00;;;;;;;;5063750;28;51928;-61
2022/08/06 12:17:14;;;;;;;;;3.00;2.33;;;;;;;;5075995;28;51114;-61
2022/08/06 12:19:44;;;;;;;;;1.00;1.00;;;;;;;;5074999;28;51105;-62
2022/08/06 12:22:11;;;;;;;;;2.00;1.33;;;;;;;;5074983;28;51055;-63
2022/08/06 12:24:36;;;;;;;;;1.00;1.00;;;;;;;;5074348;28;52509;-62
2022/08/06 12:27:05;;;;;;;;;1.00;1.00;;;;;;;;5074562;28;51154;-62
2022/08/06 12:29:30;;;;;;;;;3.00;3.00;;;;;;;;5075091;28;51100;-62
2022/08/06 12:31:55;;;;;;;;;0.00;0.00;;;;;;;;5074718;28;51249;-62
2022/08/06 12:34:25;;;;;;;;;1.00;1.00;;;;;;;;5074748;28;52152;-63
2022/08/06 12:36:51;;;;;;;;;2.00;2.00;;;;;;;;5074416;27;50860;-63
2022/08/06 12:39:17;;;;;;;;;1.33;1.33;;;;;;;;5074102;28;50921;-62
2022/08/06 12:41:42;;;;;;;;;1.33;1.33;;;;;;;;5073344;28;51059;-61
2022/08/06 12:44:07;;;;;;;;;2.00;1.33;;;;;;;;5073355;28;53393;-63
2022/08/06 12:46:33;;;;;;;;;2.00;2.00;;;;;;;;5074194;28;51161;-62
2022/08/06 12:48:59;;;;;;;;;1.67;1.67;;;;;;;;5075169;28;51016;-63
2022/08/06 12:51:25;;;;;;;;;2.00;2.00;;;;;;;;5074090;28;50996;-63
2022/08/06 12:53:53;;;;;;;;;2.00;2.00;;;;;;;;5074064;28;51918;-63
2022/08/06 12:56:19;;;;;;;;;1.00;1.00;;;;;;;;5074212;28;50931;-63
2022/08/06 12:58:45;;;;;;;;;1.33;1.33;;;;;;;;5074672;28;51203;-62
2022/08/06 13:01:12;;;;;;;;;1.00;1.00;;;;;;;;5074427;27;51157;-62
2022/08/06 13:03:39;;;;;;;;;1.00;1.00;;;;;;;;5073873;28;52163;-61
2022/08/06 13:06:06;;;;;;;;;2.00;2.00;;;;;;;;5073528;27;51024;-63
2022/08/06 13:08:31;;;;;;;;;2.33;1.67;;;;;;;;5073058;28;50998;-63
2022/08/06 13:10:57;;;;;;;;;3.00;3.00;;;;;;;;5074127;28;51049;-62
2022/08/06 13:13:37;;;;;;;;;2.00;2.00;;;;;;;;5073724;28;51229;-63
2022/08/06 13:16:04;;;;;;;;;3.67;3.67;;;;;;;;5073870;28;50964;-63
2022/08/06 13:18:30;;;;;;;;;3.00;3.00;;;;;;;;5073780;28;50970;-62
2022/08/06 13:20:55;;;;;;;;;1.00;1.00;;;;;;;;5073994;27;51014;-63
2022/08/06 13:23:48;;;;;;;;;1.00;1.00;;;;;;;;5073833;28;52300;-61
2022/08/06 13:26:19;;;;;;;;;2.00;2.00;;;;;;;;5070507;28;51091;-61
2022/08/06 13:29:03;;;;;;;;;2.00;2.00;;;;;;;;5073340;28;51117;-62
2022/08/06 13:31:28;;;;;;;;;1.33;1.33;;;;;;;;5073543;27;51278;-63
2022/08/06 13:34:00;;;;;;;;;1.67;1.67;;;;;;;;5072717;28;51911;-61
2022/08/06 13:36:26;;;;;;;;;2.33;2.33;;;;;;;;5073174;27;51124;-62
2022/08/06 13:38:51;;;;;;;;;2.00;2.00;;;;;;;;5071119;28;51122;-63
2022/08/06 13:41:26;;;;;;;;;1.33;1.33;;;;;;;;5073295;28;51301;-61
2022/08/06 13:43:53;;;;;;;;;0.67;0.67;;;;;;;;5072841;28;51972;-63
2022/08/06 13:46:19;;;;;;;;;2.00;2.00;;;;;;;;5071695;28;50987;-62
2022/08/06 13:48:48;;;;;;;;;2.00;1.33;;;;;;;;5073577;28;50862;-63
2022/08/06 13:51:14;;;;;;;;;1.00;1.00;;;;;;;;5073885;28;50941;-62
2022/08/06 13:53:40;;;;;;;;;3.00;3.00;;;;;;;;5073494;27;50945;-62
2022/08/06 13:56:05;;;;;;;;;3.00;3.00;;;;;;;;5074255;28;50994;-62
2022/08/06 13:58:30;;;;;;;;;2.00;2.00;;;;;;;;5074161;28;51136;-63
2022/08/06 14:00:56;;;;;;;;;1.00;1.00;;;;;;;;5073823;28;51039;-62
2022/08/06 14:03:21;;;;;;;;;3.67;2.33;;;;;;;;5074095;28;51025;-62
2022/08/06 14:05:46;;;;;;;;;2.00;1.67;;;;;;;;5073732;27;51203;-62
2022/08/06 14:08:11;;;;;;;;;2.00;2.00;;;;;;;;5073396;28;51184;-63
2022/08/06 14:10:37;;;;;;;;;3.00;3.00;;;;;;;;5073180;28;51064;-63
2022/08/06 14:13:17;;;;;;;;;2.67;2.67;;;;;;;;5072670;28;52307;-63
2022/08/06 14:15:49;;;;;;;;;3.00;3.00;;;;;;;;5071207;28;51155;-62
2022/08/06 14:18:18;;;;;;;;;4.00;4.00;;;;;;;;5071429;28;51107;-62
2022/08/06 14:20:44;;;;;;;;;5.00;4.00;;;;;;;;5072990;27;51120;-62
2022/08/06 14:23:09;;;;;;;;;2.00;2.00;;;;;;;;5071904;28;51245;-63
2022/08/06 14:25:36;;;;;;;;;4.00;4.00;;;;;;;;5072566;28;51563;-62
2022/08/06 14:28:01;;;;;;;;;3.00;3.00;;;;;;;;5071263;28;51307;-63
2022/08/06 14:30:27;;;;;;;;;4.00;3.33;;;;;;;;5073339;28;51004;-62
2022/08/06 14:32:53;;;;;;;;;3.00;3.00;;;;;;;;5072689;28;52285;-62
2022/08/06 14:35:18;;;;;;;;;5.00;4.67;;;;;;;;5072083;28;50869;-62
2022/08/06 14:37:43;;;;;;;;;3.33;3.33;;;;;;;;5071277;28;51209;-62
2022/08/06 14:40:09;;;;;;;;;4.00;4.00;;;;;;;;5073158;28;51068;-62
2022/08/06 14:45:23;;;;;;;;;4.33;4.00;;;;;;;;5072729;28;50948;-61
2022/08/06 14:47:48;;;;;;;;;4.00;3.67;;;;;;;;5072638;27;51176;-62
2022/08/06 14:50:14;;;;;;;;;2.00;2.00;;;;;;;;5072445;27;51064;-62
2022/08/06 14:52:40;;;;;;;;;4.00;4.00;;;;;;;;5071635;28;51156;-62
2022/08/06 14:55:06;;;;;;;;;4.00;3.00;;;;;;;;5058867;28;50918;-62